createdAt,value
2019-02-06T00:00:40.700Z,14.07
2019-02-06T00:03:14.046Z,14.87
2019-02-06T00:05:45.459Z,13.57
2019-02-06T00:08:16.882Z,13.67
2019-02-06T00:10:48.267Z,14.43
2019-02-06T00:13:19.636Z,14.77
2019-02-06T00:15:51.523Z,14.10
2019-02-06T00:18:22.998Z,14.47
2019-02-06T00:20:54.474Z,13.73
2019-02-06T00:23:25.713Z,14.30
2019-02-06T00:25:57.106Z,14.10
2019-02-06T00:28:28.391Z,14.30
2019-02-06T00:31:01.168Z,14.90
2019-02-06T00:33:32.607Z,14.63
2019-02-06T00:36:04.340Z,13.37
2019-02-06T00:38:35.800Z,13.40
2019-02-06T00:41:07.052Z,13.90
2019-02-06T00:43:38.353Z,14.20
2019-02-06T00:46:09.750Z,14.23
2019-02-06T00:48:41.192Z,13.13
2019-02-06T00:51:12.528Z,13.63
2019-02-06T00:53:43.822Z,14.80
2019-02-06T00:56:15.082Z,13.73
2019-02-06T00:58:46.446Z,13.23
2019-02-06T01:01:17.790Z,13.00
2019-02-06T01:03:49.174Z,13.03
2019-02-06T01:06:20.473Z,13.80
2019-02-06T01:08:53.074Z,13.47
2019-02-06T01:11:24.473Z,13.93
2019-02-06T01:13:56.784Z,13.27
2019-02-06T01:16:28.108Z,13.70
2019-02-06T01:18:59.421Z,13.80
2019-02-06T01:21:30.972Z,13.20
2019-02-06T01:24:02.356Z,12.03
2019-02-06T01:26:33.677Z,13.87
2019-02-06T01:29:05.188Z,13.50
2019-02-06T01:31:37.633Z,13.70
2019-02-06T01:34:09.357Z,14.10
2019-02-06T01:36:40.753Z,13.30
2019-02-06T01:39:13.137Z,13.77
2019-02-06T01:41:44.466Z,14.60
2019-02-06T01:44:15.762Z,14.43
2019-02-06T01:46:47.393Z,13.73
2019-02-06T01:49:18.702Z,14.47
2019-02-06T01:51:50.022Z,15.20
2019-02-06T01:54:21.415Z,16.37
2019-02-06T01:56:52.738Z,19.03
2019-02-06T01:59:24.033Z,19.60
2019-02-06T02:01:55.293Z,18.83
2019-02-06T02:04:26.679Z,17.50
2019-02-06T02:06:58.064Z,17.07
2019-02-06T02:09:29.551Z,18.27
2019-02-06T02:12:00.802Z,16.73
2019-02-06T02:14:32.337Z,16.10
2019-02-06T02:17:03.788Z,17.03
2019-02-06T02:19:35.178Z,16.43
2019-02-06T02:22:06.715Z,16.03
2019-02-06T02:24:38.043Z,15.20
2019-02-06T02:27:09.615Z,13.83
2019-02-06T02:29:40.930Z,13.83
2019-02-06T02:32:13.242Z,14.17
2019-02-06T02:34:44.546Z,14.13
2019-02-06T02:37:15.917Z,14.37
2019-02-06T02:39:47.487Z,14.03
2019-02-06T02:42:18.846Z,14.90
2019-02-06T02:44:50.146Z,14.63
2019-02-06T02:47:21.468Z,14.93
2019-02-06T02:49:52.729Z,14.03
2019-02-06T02:52:24.407Z,13.57
2019-02-06T02:54:55.692Z,14.97
2019-02-06T02:57:27.103Z,14.73
2019-02-06T02:59:58.424Z,15.03
2019-02-06T03:02:31.422Z,13.40
2019-02-06T03:05:03.195Z,16.67
2019-02-06T03:07:34.709Z,17.10
2019-02-06T03:10:10.751Z,15.77
2019-02-06T03:12:42.197Z,15.07
2019-02-06T03:15:13.652Z,13.90
2019-02-06T03:17:45.223Z,15.07
2019-02-06T03:20:16.636Z,15.20
2019-02-06T03:22:48.082Z,14.97
2019-02-06T03:25:19.330Z,14.53
2019-02-06T03:27:50.693Z,14.00
2019-02-06T03:30:22.506Z,15.23
2019-02-06T03:32:53.892Z,15.50
2019-02-06T03:35:25.210Z,16.80
2019-02-06T03:37:56.685Z,15.67
2019-02-06T03:40:28.055Z,16.13
2019-02-06T03:42:59.687Z,16.90
2019-02-06T03:45:31.590Z,15.73
2019-02-06T03:48:03.457Z,16.50
2019-02-06T03:50:34.856Z,14.83
2019-02-06T03:53:06.991Z,15.90
2019-02-06T03:55:38.248Z,16.93
2019-02-06T03:58:09.716Z,17.53
2019-02-06T04:00:42.880Z,17.60
2019-02-06T04:03:14.389Z,18.33
2019-02-06T04:05:45.662Z,17.63
2019-02-06T04:08:17.055Z,18.37
2019-02-06T04:10:48.386Z,17.03
2019-02-06T04:13:19.630Z,17.83
2019-02-06T04:15:51.496Z,18.70
2019-02-06T04:18:22.884Z,19.63
2019-02-06T04:20:54.210Z,18.97
2019-02-06T04:23:25.823Z,19.33
2019-02-06T04:25:57.234Z,19.70
2019-02-06T04:28:28.526Z,20.37
2019-02-06T04:31:01.001Z,21.03
2019-02-06T04:33:32.603Z,20.77
2019-02-06T04:36:04.116Z,18.20
2019-02-06T04:38:35.589Z,21.07
2019-02-06T04:41:07.028Z,20.33
2019-02-06T04:43:38.461Z,21.27
2019-02-06T04:46:10.083Z,21.03
2019-02-06T04:48:41.483Z,19.67
2019-02-06T04:51:13.307Z,20.47
2019-02-06T04:53:45.071Z,20.73
2019-02-06T04:56:16.626Z,21.33
2019-02-06T04:58:50.156Z,21.43
2019-02-06T05:01:21.613Z,20.50
2019-02-06T05:03:53.140Z,21.53
2019-02-06T05:06:24.603Z,20.43
2019-02-06T05:08:56.100Z,21.33
2019-02-06T05:11:27.391Z,22.13
2019-02-06T05:14:01.435Z,21.90
2019-02-06T05:16:32.848Z,21.43
2019-02-06T05:19:04.390Z,21.47
2019-02-06T05:21:35.843Z,25.00
2019-02-06T05:24:07.347Z,23.80
2019-02-06T05:26:39.087Z,24.67
2019-02-06T05:29:10.563Z,22.70
2019-02-06T05:31:41.814Z,23.47
2019-02-06T05:34:14.168Z,21.77
2019-02-06T05:36:45.424Z,26.63
2019-02-06T05:39:17.193Z,28.33
2019-02-06T05:41:48.524Z,27.00
2019-02-06T05:44:19.815Z,23.93
2019-02-06T05:46:51.261Z,23.60
2019-02-06T05:49:22.838Z,23.20
2019-02-06T05:52:01.966Z,22.53
2019-02-06T05:54:33.267Z,22.00
2019-02-06T05:57:04.732Z,21.37
2019-02-06T05:59:36.055Z,22.63
2019-02-06T06:02:07.496Z,22.37
2019-02-06T06:04:38.884Z,22.50
2019-02-06T06:07:10.472Z,22.37
2019-02-06T06:09:41.800Z,23.23
2019-02-06T06:12:13.156Z,23.70
2019-02-06T06:14:44.419Z,22.27
2019-02-06T06:17:15.770Z,22.07
2019-02-06T06:19:47.298Z,22.73
2019-02-06T06:22:18.675Z,21.90
2019-02-06T06:24:49.970Z,22.40
2019-02-06T06:27:21.274Z,22.40
2019-02-06T06:29:52.586Z,21.63
2019-02-06T06:32:24.072Z,23.33
2019-02-06T06:34:55.387Z,21.33
2019-02-06T06:37:26.698Z,23.00
2019-02-06T06:39:58.034Z,21.80
2019-02-06T06:42:29.321Z,22.00
2019-02-06T06:45:00.575Z,25.00
2019-02-06T06:47:31.873Z,23.50
2019-02-06T06:50:03.269Z,22.80
2019-02-06T06:52:34.570Z,24.87
2019-02-06T06:55:10.253Z,23.07
2019-02-06T06:57:42.805Z,24.57
2019-02-06T07:00:25.435Z,23.03
2019-02-06T07:03:10.934Z,24.23
2019-02-06T07:05:42.448Z,25.83
2019-02-06T07:08:13.946Z,24.40
2019-02-06T07:10:45.248Z,25.20
2019-02-06T07:13:17.705Z,23.40
2019-02-06T07:15:49.201Z,24.90
2019-02-06T07:18:20.501Z,26.90
2019-02-06T07:20:52.144Z,25.73
2019-02-06T07:23:23.677Z,26.77
2019-02-06T07:25:55.745Z,26.20
2019-02-06T07:28:28.483Z,25.90
2019-02-06T07:30:59.905Z,26.00
2019-02-06T07:33:31.378Z,25.50
2019-02-06T07:36:03.970Z,25.60
2019-02-06T07:38:35.301Z,24.57
2019-02-06T07:41:06.669Z,25.23
2019-02-06T07:43:38.140Z,25.90
2019-02-06T07:46:09.590Z,25.73
2019-02-06T07:48:40.983Z,27.30
2019-02-06T07:51:12.269Z,25.73
2019-02-06T07:53:44.541Z,26.67
2019-02-06T07:56:15.867Z,26.90
2019-02-06T07:58:50.566Z,27.47
2019-02-06T08:01:20.548Z,28.60
2019-02-06T08:03:53.172Z,28.83
2019-02-06T08:06:24.534Z,28.33
2019-02-06T08:08:57.612Z,29.97
2019-02-06T08:11:29.249Z,30.83
2019-02-06T08:14:00.575Z,31.43
2019-02-06T08:16:31.966Z,32.47
2019-02-06T08:19:03.615Z,31.53
2019-02-06T08:21:35.138Z,31.80
2019-02-06T08:24:06.801Z,32.53
2019-02-06T08:26:38.350Z,31.60
2019-02-06T08:29:09.785Z,32.73
2019-02-06T08:31:41.173Z,32.03
2019-02-06T08:34:12.459Z,32.43
2019-02-06T08:36:44.140Z,32.03
2019-02-06T08:39:15.601Z,30.30
2019-02-06T08:41:47.075Z,31.93
2019-02-06T08:44:18.534Z,32.47
2019-02-06T08:46:49.963Z,33.00
2019-02-06T08:49:21.709Z,33.23
2019-02-06T08:51:53.058Z,34.17
2019-02-06T08:54:24.354Z,35.07
2019-02-06T08:56:55.866Z,33.93
2019-02-06T08:59:27.196Z,34.43
2019-02-06T09:01:58.502Z,35.13
2019-02-06T09:04:29.750Z,36.43
2019-02-06T09:07:01.117Z,36.83
2019-02-06T09:09:32.577Z,36.87
2019-02-06T09:12:04.046Z,35.90
2019-02-06T09:14:35.438Z,36.97
2019-02-06T09:17:06.916Z,36.50
2019-02-06T09:19:38.163Z,38.83
2019-02-06T09:22:09.594Z,36.03
2019-02-06T09:24:40.997Z,38.27
2019-02-06T09:27:12.490Z,38.87
2019-02-06T09:29:44.001Z,37.77
2019-02-06T09:32:15.451Z,38.93
2019-02-06T09:34:46.702Z,40.30
2019-02-06T09:37:18.072Z,38.37
2019-02-06T09:39:49.317Z,37.70
2019-02-06T09:42:22.011Z,38.90
2019-02-06T09:44:53.262Z,39.43
2019-02-06T09:47:24.626Z,38.03
2019-02-06T09:49:55.880Z,38.80
2019-02-06T09:52:28.904Z,39.40
2019-02-06T09:55:00.331Z,39.67
2019-02-06T09:57:35.471Z,39.17
2019-02-06T10:00:11.066Z,40.70
2019-02-06T10:02:42.452Z,39.50
2019-02-06T10:05:14.363Z,38.67
2019-02-06T10:07:47.013Z,39.10
2019-02-06T10:10:21.633Z,39.23
2019-02-06T10:12:53.068Z,40.07
2019-02-06T10:15:30.864Z,38.50
2019-02-06T10:18:02.748Z,39.10
2019-02-06T10:20:44.694Z,38.73
2019-02-06T10:23:16.208Z,38.13
2019-02-06T10:25:47.668Z,38.47
2019-02-06T10:28:19.150Z,36.60
2019-02-06T10:31:00.101Z,35.87
2019-02-06T10:33:37.237Z,36.33
2019-02-06T10:36:08.667Z,36.17
2019-02-06T10:38:40.154Z,35.33
2019-02-06T10:41:11.458Z,38.97
2019-02-06T10:43:42.819Z,37.53
2019-02-06T10:46:14.259Z,37.73
2019-02-06T10:48:45.647Z,37.07
2019-02-06T10:51:16.947Z,37.57
2019-02-06T10:53:48.335Z,36.23
2019-02-06T10:56:19.699Z,35.80
2019-02-06T10:58:52.260Z,36.07
2019-02-06T11:01:23.657Z,34.90
2019-02-06T11:03:55.080Z,35.47
2019-02-06T11:06:26.915Z,33.40
2019-02-06T11:08:58.349Z,34.67
2019-02-06T11:11:29.659Z,34.20
2019-02-06T11:14:01.081Z,36.00
2019-02-06T11:16:32.431Z,33.60
2019-02-06T11:19:04.216Z,33.13
2019-02-06T11:21:35.644Z,33.77
2019-02-06T11:24:07.120Z,31.83
2019-02-06T11:26:38.488Z,33.40
2019-02-06T11:29:10.014Z,32.37
2019-02-06T11:31:41.726Z,34.03
2019-02-06T11:34:13.026Z,32.30
2019-02-06T11:36:45.378Z,30.63
2019-02-06T11:39:19.253Z,31.83
2019-02-06T11:41:50.749Z,30.73
2019-02-06T11:44:22.418Z,32.63
2019-02-06T11:46:53.798Z,29.87
2019-02-06T11:49:29.970Z,31.57
2019-02-06T11:52:01.378Z,31.10
2019-02-06T11:54:32.689Z,31.13
2019-02-06T11:57:04.305Z,31.27
2019-02-06T11:59:35.676Z,30.80
2019-02-06T12:02:07.051Z,30.17
2019-02-06T12:04:39.364Z,31.33
2019-02-06T12:07:10.651Z,30.30
2019-02-06T12:09:42.406Z,30.37
2019-02-06T12:12:13.709Z,29.80
2019-02-06T12:14:45.270Z,29.27
2019-02-06T12:17:16.695Z,28.20
2019-02-06T12:19:48.220Z,29.70
2019-02-06T12:22:19.875Z,28.53
2019-02-06T12:24:51.237Z,28.93
2019-02-06T12:27:22.473Z,29.27
2019-02-06T12:29:53.810Z,29.17
2019-02-06T12:32:25.167Z,29.00
2019-02-06T12:34:56.587Z,29.50
2019-02-06T12:37:27.833Z,27.70
2019-02-06T12:39:59.359Z,28.10
2019-02-06T12:42:30.733Z,28.27
2019-02-06T12:45:02.093Z,29.87
2019-02-06T12:47:33.596Z,30.00
2019-02-06T12:50:09.751Z,28.80
2019-02-06T12:52:41.214Z,29.43
2019-02-06T12:55:22.988Z,30.30
2019-02-06T12:57:54.425Z,26.93
2019-02-06T13:00:32.088Z,29.07
2019-02-06T13:03:03.616Z,29.55
2019-02-06T13:05:35.252Z,28.75
2019-02-06T13:08:07.568Z,28.52
2019-02-06T13:10:39.189Z,28.67
2019-02-06T13:13:13.670Z,29.50
2019-02-06T13:15:47.285Z,29.67
2019-02-06T13:18:24.198Z,29.63
2019-02-06T13:20:55.313Z,30.45
2019-02-06T13:23:26.752Z,30.20
2019-02-06T13:25:58.771Z,28.75
2019-02-06T13:28:30.055Z,28.02
2019-02-06T13:31:01.520Z,29.25
2019-02-06T13:33:32.973Z,28.57
2019-02-06T13:36:07.705Z,28.77
2019-02-06T13:38:39.352Z,28.50
2019-02-06T13:41:12.440Z,28.27
2019-02-06T13:43:43.824Z,27.65
2019-02-06T13:46:16.094Z,28.17
2019-02-06T13:48:50.561Z,28.23
2019-02-06T13:51:22.907Z,28.98
2019-02-06T13:53:54.231Z,28.95
2019-02-06T13:56:31.848Z,29.42
2019-02-06T13:59:03.254Z,28.00
2019-02-06T14:01:35.087Z,28.30
2019-02-06T14:04:06.533Z,28.85
2019-02-06T14:06:37.841Z,27.45
2019-02-06T14:09:21.657Z,27.35
2019-02-06T14:11:44.387Z,27.62
2019-02-06T14:14:16.551Z,28.00
2019-02-06T14:16:47.906Z,30.23
2019-02-06T14:19:19.407Z,26.77
2019-02-06T14:21:51.109Z,26.62
2019-02-06T14:24:27.175Z,28.38
2019-02-06T14:27:22.640Z,27.85
2019-02-06T14:30:27.876Z,27.52
2019-02-06T14:33:28.696Z,28.77
2019-02-06T14:36:18.217Z,27.95
2019-02-06T14:39:00.409Z,27.77
2019-02-06T14:41:43.868Z,27.58
2019-02-06T14:44:31.651Z,26.80
2019-02-06T14:47:22.813Z,26.07
2019-02-06T14:50:17.810Z,26.30
2019-02-06T14:53:20.288Z,24.75
2019-02-06T14:56:13.869Z,26.17
2019-02-06T14:59:19.016Z,24.50
2019-02-06T15:02:36.916Z,24.65
2019-02-06T15:05:27.621Z,24.40
2019-02-06T15:08:24.784Z,23.47
2019-02-06T15:11:19.397Z,24.63
2019-02-06T15:13:55.489Z,25.95
2019-02-06T15:16:50.742Z,26.10
2019-02-06T15:19:38.848Z,24.27
2019-02-06T15:22:23.671Z,24.12
2019-02-06T15:25:08.555Z,23.42
2019-02-06T15:28:24.282Z,24.82
2019-02-06T15:31:22.681Z,23.43
2019-02-06T15:34:15.608Z,24.25
2019-02-06T15:37:00.916Z,23.25
2019-02-06T15:40:13.320Z,23.10
2019-02-06T15:43:00.120Z,22.98
2019-02-06T15:49:17.053Z,23.10
2019-02-06T15:51:53.031Z,24.35
2019-02-06T15:55:11.561Z,24.20
2019-02-06T15:58:07.269Z,24.15
2019-02-06T16:00:47.283Z,24.60
2019-02-06T16:04:16.245Z,23.85
2019-02-06T16:07:29.711Z,24.27
2019-02-06T16:10:23.843Z,23.85
2019-02-06T16:13:20.609Z,23.63
2019-02-06T16:16:23.638Z,25.30
2019-02-06T16:19:19.767Z,24.10
2019-02-06T16:22:27.676Z,24.75
2019-02-06T16:25:06.711Z,25.12
2019-02-06T16:28:08.384Z,25.37
2019-02-06T16:31:02.335Z,24.10
2019-02-06T16:33:44.515Z,23.42
2019-02-06T16:36:55.799Z,23.50
2019-02-06T16:39:44.844Z,29.20
2019-02-06T16:42:50.824Z,28.12
2019-02-06T16:46:07.908Z,25.65
2019-02-06T16:49:12.033Z,24.50
2019-02-06T16:52:15.259Z,22.67
2019-02-06T16:55:14.602Z,22.83
2019-02-06T16:58:14.678Z,22.83
2019-02-06T17:01:27.175Z,21.80
2019-02-06T17:04:31.340Z,21.77
2019-02-06T17:07:32.862Z,23.40
2019-02-06T17:10:30.113Z,33.73
2019-02-06T17:13:22.786Z,32.90
2019-02-06T17:16:31.554Z,30.07
2019-02-06T17:19:19.645Z,29.97
2019-02-06T17:22:01.541Z,32.00
2019-02-06T17:25:00.663Z,30.43
2019-02-06T17:28:00.447Z,30.43
2019-02-06T17:30:45.103Z,27.57
2019-02-06T17:33:32.665Z,30.13
2019-02-06T17:36:37.762Z,39.13
2019-02-06T17:39:55.781Z,32.43
2019-02-06T17:42:52.437Z,32.53
2019-02-06T17:45:45.863Z,32.43
2019-02-06T17:48:50.519Z,30.03
2019-02-06T17:51:47.487Z,34.17
2019-02-06T17:54:28.057Z,37.80
2019-02-06T17:56:59.430Z,34.40
2019-02-06T17:59:31.015Z,41.10
2019-02-06T18:02:02.400Z,36.93
2019-02-06T18:04:33.924Z,34.43
2019-02-06T18:07:05.437Z,36.67
2019-02-06T18:09:36.856Z,35.77
2019-02-06T18:12:08.461Z,31.40
2019-02-06T18:14:39.705Z,33.23
2019-02-06T18:17:12.166Z,33.43
2019-02-06T18:19:43.571Z,33.40
2019-02-06T18:22:15.159Z,32.33
2019-02-06T18:24:46.486Z,31.73
2019-02-06T18:27:17.802Z,33.03
2019-02-06T18:29:49.109Z,34.50
2019-02-06T18:32:20.867Z,35.63
2019-02-06T18:34:57.126Z,36.83
2019-02-06T18:37:28.573Z,35.80
2019-02-06T18:40:00.332Z,34.60
2019-02-06T18:42:36.920Z,32.93
2019-02-06T18:45:08.218Z,35.73
2019-02-06T18:47:39.625Z,38.33
2019-02-06T18:50:31.344Z,36.30
2019-02-06T18:53:03.592Z,39.20
2019-02-06T18:55:36.238Z,36.83
2019-02-06T18:58:10.009Z,35.63
2019-02-06T19:00:45.431Z,34.97
2019-02-06T19:03:36.106Z,33.83
2019-02-06T19:06:07.589Z,34.87
2019-02-06T19:08:40.122Z,34.73
2019-02-06T19:11:11.934Z,34.93
2019-02-06T19:13:43.371Z,33.17
2019-02-06T19:16:16.895Z,34.23
2019-02-06T19:18:49.703Z,34.37
2019-02-06T19:21:22.011Z,34.47
2019-02-06T19:23:54.576Z,36.27
2019-02-06T19:26:26.614Z,35.07
2019-02-06T19:28:58.108Z,34.33
2019-02-06T19:31:29.562Z,35.20
2019-02-06T19:34:01.177Z,34.70
2019-02-06T19:36:34.276Z,33.60
2019-02-06T19:39:08.543Z,34.67
2019-02-06T19:41:41.280Z,35.20
2019-02-06T19:44:12.877Z,33.60
2019-02-06T19:46:44.382Z,32.87
2019-02-06T19:49:15.976Z,33.23
2019-02-06T19:51:50.249Z,32.27
2019-02-06T19:54:21.798Z,34.17
2019-02-06T19:56:53.971Z,35.10
2019-02-06T19:59:26.410Z,40.93
2019-02-06T20:01:59.227Z,45.03
2019-02-06T20:04:30.758Z,39.37
2019-02-06T20:07:02.555Z,34.40
2019-02-06T20:09:34.033Z,33.33
2019-02-06T20:12:05.659Z,32.27
2019-02-06T20:14:37.579Z,33.67
2019-02-06T20:17:09.254Z,32.47
2019-02-06T20:19:40.828Z,32.43
2019-02-06T20:22:12.640Z,32.87
2019-02-06T20:24:46.259Z,32.20
2019-02-06T20:27:18.511Z,32.27
2019-02-06T20:29:50.283Z,31.47
2019-02-06T20:32:24.451Z,31.03
2019-02-06T20:34:54.797Z,31.70
2019-02-06T20:37:26.463Z,29.73
2019-02-06T20:39:57.718Z,29.70
2019-02-06T20:42:29.050Z,31.27
2019-02-06T20:45:01.329Z,31.37
2019-02-06T20:47:34.520Z,30.13
2019-02-06T20:50:16.133Z,29.93
2019-02-06T20:52:47.583Z,29.27
2019-02-06T20:55:20.384Z,32.30
2019-02-06T20:57:51.831Z,29.47
2019-02-06T21:00:36.928Z,30.87
2019-02-06T21:03:08.596Z,30.30
2019-02-06T21:05:41.595Z,29.57
2019-02-06T21:08:13.019Z,29.83
2019-02-06T21:10:44.308Z,30.33
2019-02-06T21:13:15.658Z,29.77
2019-02-06T21:15:47.215Z,30.47
2019-02-06T21:18:18.627Z,30.63
2019-02-06T21:20:51.869Z,29.03
2019-02-06T21:23:23.168Z,31.07
2019-02-06T21:25:54.548Z,31.10
2019-02-06T21:28:25.983Z,31.17
2019-02-06T21:30:57.430Z,30.47
2019-02-06T21:33:29.438Z,30.00
2019-02-06T21:36:14.328Z,30.87
2019-02-06T21:38:48.821Z,30.53
2019-02-06T21:41:21.672Z,30.10
2019-02-06T21:43:53.051Z,29.50
2019-02-06T21:46:24.400Z,31.17
2019-02-06T21:48:55.730Z,30.57
2019-02-06T21:51:27.094Z,29.33
2019-02-06T21:53:58.418Z,27.87
2019-02-06T21:56:29.684Z,27.30
2019-02-06T21:59:04.870Z,27.33
2019-02-06T22:01:37.160Z,26.80
2019-02-06T22:04:08.614Z,27.50
2019-02-06T22:06:39.859Z,27.17
2019-02-06T22:09:12.097Z,28.07
2019-02-06T22:11:43.420Z,29.37
2019-02-06T22:14:14.792Z,31.43
2019-02-06T22:16:46.114Z,32.97
2019-02-06T22:19:17.402Z,34.83
2019-02-06T22:21:49.762Z,32.57
2019-02-06T22:24:21.198Z,33.33
2019-02-06T22:26:52.458Z,34.03
2019-02-06T22:29:23.758Z,31.07
2019-02-06T22:31:55.078Z,30.87
2019-02-06T22:34:26.456Z,32.17
2019-02-06T22:36:57.783Z,31.43
2019-02-06T22:39:29.086Z,31.10
2019-02-06T22:42:00.477Z,32.13
2019-02-06T22:44:31.763Z,32.30
2019-02-06T22:47:03.020Z,32.63
2019-02-06T22:49:34.265Z,33.07
2019-02-06T22:52:05.887Z,34.27
2019-02-06T22:54:37.283Z,33.83
2019-02-06T22:57:08.589Z,35.43
2019-02-06T22:59:39.841Z,35.63
2019-02-06T23:02:11.398Z,36.70
2019-02-06T23:04:42.791Z,35.77
2019-02-06T23:07:14.311Z,36.70
2019-02-06T23:09:45.561Z,36.70
2019-02-06T23:12:16.996Z,34.50
2019-02-06T23:14:48.466Z,37.40
2019-02-06T23:17:19.832Z,35.97
2019-02-06T23:19:51.086Z,33.73
2019-02-06T23:22:22.429Z,35.37
2019-02-06T23:24:53.746Z,34.90
2019-02-06T23:27:25.119Z,35.67
2019-02-06T23:29:56.365Z,34.67
2019-02-06T23:32:27.732Z,34.73
2019-02-06T23:34:59.057Z,33.37
2019-02-06T23:37:31.350Z,35.03
2019-02-06T23:40:02.878Z,35.07
2019-02-06T23:42:34.263Z,35.27
2019-02-06T23:45:09.834Z,34.47
2019-02-06T23:47:41.566Z,34.63
2019-02-06T23:50:16.071Z,37.40
2019-02-06T23:52:47.602Z,37.73
2019-02-06T23:55:18.880Z,35.87
2019-02-06T23:57:50.464Z,37.20
